Nashville, Tennessee
Traffic Map
Current Weather Conditions
Nashville, Tennessee
Broken Clouds
Broken Clouds
55°
Feels Like: 55°
Wind Chill: 55° Ceiling: 14000
Heat Index: 55° Visibility: 10mi
Dew Point: 52° Wind: 0mph
Humidity: 89% Direction: ° ()
Pressure: 29.9in Gusts: 0mph
Raw Report DataKBNA 270053Z 00000KT 10SM FEW018 FEW100 BKN140 BKN250 13/11 A2990 RMK AO2 SLP122 T01280111
Traffic Incident Summary
Active as of:
Severity:
Category:
InformationThere was an issue retrieving the traffic information for this location. Please try a different location or try again shortly.
Advertisements